NetherlandsFixed distance
Kennedymars
11 Apr2009
Distance
80km
Finishers
5854 men4 women
Winning time
8:01:41h
Median pace
7.57km/h
Pace distribution
58 finishers · 6.78–9.96 km/h · mean 7.64
Every finisher ran the same 80 km course, so these paces are directly comparable.
Histogram of finisher pace. 58 finishers ranged from 6.78 to 9.96 kilometres per hour, with a mean of 7.64 and a median of 7.57. The busiest band is 7.5 to 8.0 kilometres per hour, with 17 finishers.
Results
Ranks 1–50 of 58
| Rank | Runner | Time | Pace | Cat. | Placing |
|---|---|---|---|---|---|
| 1 | Unitas | 8:01:41h | 9.96 | M40 | 1st M · 1st M40 |
| 2 | Unitas | 8:35:14h | 9.32 | M45 | 2nd M · 1st M45 |
| 3 | *Geleen | 8:46:09h | 9.12 | — | 3rd M |
| 4 | RWV | 9:06:36h | 8.78 | M45 | 4th M · 2nd M45 |
| 5 | *Moorveld | 9:20:43h | 8.56 | — | 5th M |
| 6 | RWV | 9:25:25h | 8.49 | M23 | 6th M · 1st M23 |
| 7 | RWV | 9:31:02h | 8.41 | W55 | 1st F · 1st W55 |
| 8 | *Nijmegen | 9:38:17h | 8.30 | M60 | 7th M · 1st M60 |
| 9 | Olat | 9:39:26h | 8.28 | M50 | 8th M · 1st M50 |
| 10 | Olat | 9:42:20h | 8.24 | M50 | 9th M · 2nd M50 |
| 11 | *Spijkenisse | 9:44:00h | 8.22 | M23 | 10th M · 2nd M23 |
| 12 | *Thorn | 9:55:55h | 8.05 | — | 11th M |
| 13 | *Stein | 9:56:22h | 8.05 | — | 12th M |
| 14 | *Woerden | 9:58:13h | 8.02 | M60 | 13th M · 2nd M60 |
| 15 | *Bunde | 10:00:33h | 7.99 | M45 | 14th M · 3rd M45 |
| 16 | RWV | 10:02:35h | 7.97 | M50 | 15th M · 3rd M50 |
| 17 | *Huis Ter Heide Ut | 10:06:38h | 7.91 | — | 16th M |
| 18 | *Alphen Aan De Rijn | 10:12:03h | 7.84 | M45 | 17th M · 4th M45 |
| 19 | GAC | 10:13:20h | 7.83 | M60 | 18th M · 3rd M60 |
| 20 | *Gulpen | 10:14:11h | 7.82 | — | 19th M |
| 21 | *Echt | 10:17:10h | 7.78 | M60 | 20th M · 4th M60 |
| 22 | *Geleen | 10:17:44h | 7.77 | — | 21st M |
| 23 | *Willemstad | 10:21:43h | 7.72 | M60 | 22nd M · 5th M60 |
| 24 | *Sexbierum | 10:25:20h | 7.68 | — | 23rd M |
| 25 | Olat | 10:28:25h | 7.64 | — | 2nd F |
| 26 | Olat | 10:28:25h | 7.64 | M60 | 24th M · 6th M60 |
| 27 | RWV | 10:28:25h | 7.64 | M55 | 24th M · 1st M55 |
| 28 | *Breda | 10:29:40h | 7.62 | M65 | 26th M · 1st M65 |
| 29 | *Veldhoven | 10:31:26h | 7.60 | M40 | 27th M · 2nd M40 |
| 30 | LAT | 10:34:30h | 7.57 | M45 | 28th M · 5th M45 |
| 31 | *Tilburg | 10:36:40h | 7.54 | — | 29th M |
| 32 | *Helmond | 10:41:05h | 7.49 | — | 30th M |
| 33 | *Berkel-Enschot | 10:45:50h | 7.43 | M40 | 31st M · 3rd M40 |
| 34 | *Reeuwijk-Dorp | 10:47:28h | 7.41 | M60 | 32nd M · 7th M60 |
| 35 | *Landgraaf | 10:47:31h | 7.41 | — | 33rd M |
| 36 | *Valkenswaard | 10:50:15h | 7.38 | — | 34th M |
| 37 | *Nijmegen | 10:51:39h | 7.37 | W55 | 3rd F · 2nd W55 |
| 38 | *Almere | 10:52:38h | 7.36 | M45 | 35th M · 6th M45 |
| 39 | *Echt | 10:54:13h | 7.34 | — | 36th M |
| 40 | *Rijsbergen | 10:55:22h | 7.32 | M60 | 37th M · 8th M60 |
| 41 | *Maarheeze | 11:00:37h | 7.27 | — | 38th M |
| 42 | *Venlo | 11:18:13h | 7.08 | M65 | 39th M · 2nd M65 |
| 43 | *Nijlen | 11:19:05h | 7.07 | M40 | 40th M · 4th M40 |
| 44 | *Roosendaal | 11:25:10h | 7.01 | — | 41st M |
| 45 | *Hengelo Ov. | 11:25:48h | 7.00 | — | 42nd M |
| 46 | *Hellendoorn | 11:25:48h | 7.00 | — | 42nd M |
| 47 | *Vlissingen | 11:25:50h | 7.00 | M55 | 44th M · 2nd M55 |
| 48 | *Drunen | 11:25:50h | 7.00 | M65 | 44th M · 3rd M65 |
| 49 | *Eindhoven | 11:26:50h | 6.99 | — | 46th M |
| 50 | *S-Heerenhoek | 11:26:50h | 6.99 | — | 46th M |
- 1Unitas1st M · 1st M40Time8:01:41hPace9.96Cat.M40
- 2Unitas2nd M · 1st M45Time8:35:14hPace9.32Cat.M45
- 3*Geleen3rd MTime8:46:09hPace9.12
- 4RWV4th M · 2nd M45Time9:06:36hPace8.78Cat.M45
- 5*Moorveld5th MTime9:20:43hPace8.56
- 6RWV6th M · 1st M23Time9:25:25hPace8.49Cat.M23
- 7RWV1st F · 1st W55Time9:31:02hPace8.41Cat.W55
- 8*Nijmegen7th M · 1st M60Time9:38:17hPace8.30Cat.M60
- 9Olat8th M · 1st M50Time9:39:26hPace8.28Cat.M50
- 10Olat9th M · 2nd M50Time9:42:20hPace8.24Cat.M50
- 11*Spijkenisse10th M · 2nd M23Time9:44:00hPace8.22Cat.M23
- 12*Thorn11th MTime9:55:55hPace8.05
- 13*Stein12th MTime9:56:22hPace8.05
- 14*Woerden13th M · 2nd M60Time9:58:13hPace8.02Cat.M60
- 15*Bunde14th M · 3rd M45Time10:00:33hPace7.99Cat.M45
- 16RWV15th M · 3rd M50Time10:02:35hPace7.97Cat.M50
- 17*Huis Ter Heide Ut16th MTime10:06:38hPace7.91
- 18*Alphen Aan De Rijn17th M · 4th M45Time10:12:03hPace7.84Cat.M45
- 19GAC18th M · 3rd M60Time10:13:20hPace7.83Cat.M60
- 20*Gulpen19th MTime10:14:11hPace7.82
- 21*Echt20th M · 4th M60Time10:17:10hPace7.78Cat.M60
- 22*Geleen21st MTime10:17:44hPace7.77
- 23*Willemstad22nd M · 5th M60Time10:21:43hPace7.72Cat.M60
- 24*Sexbierum23rd MTime10:25:20hPace7.68
- 25Olat2nd FTime10:28:25hPace7.64
- 26Olat24th M · 6th M60Time10:28:25hPace7.64Cat.M60
- 27RWV24th M · 1st M55Time10:28:25hPace7.64Cat.M55
- 28*Breda26th M · 1st M65Time10:29:40hPace7.62Cat.M65
- 29*Veldhoven27th M · 2nd M40Time10:31:26hPace7.60Cat.M40
- 30LAT28th M · 5th M45Time10:34:30hPace7.57Cat.M45
- 31*Tilburg29th MTime10:36:40hPace7.54
- 32*Helmond30th MTime10:41:05hPace7.49
- 33*Berkel-Enschot31st M · 3rd M40Time10:45:50hPace7.43Cat.M40
- 34*Reeuwijk-Dorp32nd M · 7th M60Time10:47:28hPace7.41Cat.M60
- 35*Landgraaf33rd MTime10:47:31hPace7.41
- 36*Valkenswaard34th MTime10:50:15hPace7.38
- 37*Nijmegen3rd F · 2nd W55Time10:51:39hPace7.37Cat.W55
- 38*Almere35th M · 6th M45Time10:52:38hPace7.36Cat.M45
- 39*Echt36th MTime10:54:13hPace7.34
- 40*Rijsbergen37th M · 8th M60Time10:55:22hPace7.32Cat.M60
- 41*Maarheeze38th MTime11:00:37hPace7.27
- 42*Venlo39th M · 2nd M65Time11:18:13hPace7.08Cat.M65
- 43*Nijlen40th M · 4th M40Time11:19:05hPace7.07Cat.M40
- 44*Roosendaal41st MTime11:25:10hPace7.01
- 45*Hengelo Ov.42nd MTime11:25:48hPace7.00
- 46*Hellendoorn42nd MTime11:25:48hPace7.00
- 47*Vlissingen44th M · 2nd M55Time11:25:50hPace7.00Cat.M55
- 48*Drunen44th M · 3rd M65Time11:25:50hPace7.00Cat.M65
- 49*Eindhoven46th MTime11:26:50hPace6.99
- 50*S-Heerenhoek46th MTime11:26:50hPace6.99
Showing ranks 1–50 of 58